Time;durP1;ratioP1;P1;durP2;ratioP2;P2;SDS_P1;SDS_P2;PMS_P1;PMS_P2;Temp;Humidity;BMP_temperature;BMP_pressure;BME280_temperature;BME280_humidity;BME280_pressure;Samples;Min_cycle;Max_cycle;Signal;HPM_P1;HPM_P2
2021/07/28 00:00:13;;;;;;;;;;;18.10;79.00;;;;;;5091930;28;19991;-67
2021/07/28 00:02:42;;;;;;;;;;;18.10;78.60;;;;;;5092141;28;19961;-67
2021/07/28 00:05:10;;;;;;;;;;;18.20;77.40;;;;;;5091836;28;20259;-64
2021/07/28 00:07:36;;;;;;;;;;;18.30;77.10;;;;;;5091907;28;19908;-66
2021/07/28 00:10:03;;;;;;;;;;;18.40;76.40;;;;;;5092081;28;20007;-66
2021/07/28 00:12:30;;;;;;;;;;;18.60;76.10;;;;;;5091759;28;19908;-67
2021/07/28 00:14:57;;;;;;;;;;;18.60;76.30;;;;;;5092122;28;19912;-67
2021/07/28 00:17:26;;;;;;;;;;;18.80;75.20;;;;;;5091937;28;19951;-66
2021/07/28 00:19:57;;;;;;;;;;;18.80;75.40;;;;;;5091526;28;19915;-67
2021/07/28 00:25:09;;;;;;;;;;;19.10;73.80;;;;;;5095966;28;19988;-67
2021/07/28 00:27:36;;;;;;;;;;;19.10;72.60;;;;;;5095527;28;19912;-68
2021/07/28 00:30:07;;;;;;;;;;;19.30;71.60;;;;;;5095324;28;19908;-68
2021/07/28 00:32:34;;;;;;;;;;;19.30;72.20;;;;;;5095429;28;20370;-68
2021/07/28 00:35:00;;;;;;;;;;;19.50;72.10;;;;;;5095663;28;19912;-67
2021/07/28 00:37:27;;;;;;;;;;;19.60;71.30;;;;;;5095330;28;19908;-68
2021/07/28 00:39:53;;;;;;;;;;;19.60;71.70;;;;;;5095344;28;19940;-68
2021/07/28 00:42:20;;;;;;;;;;;19.70;71.00;;;;;;5094996;28;20385;-67
2021/07/28 00:44:47;;;;;;;;;;;19.70;70.60;;;;;;5094961;28;19920;-68
2021/07/28 00:47:14;;;;;;;;;;;20.00;69.80;;;;;;5095211;28;19908;-67
2021/07/28 00:49:42;;;;;;;;;;;20.00;69.30;;;;;;5095105;28;20378;-65
2021/07/28 00:52:08;;;;;;;;;;;20.10;67.70;;;;;;5095392;28;20385;-67
2021/07/28 00:54:35;;;;;;;;;;;20.10;68.30;;;;;;5095238;28;19953;-68
2021/07/28 00:57:02;;;;;;;;;;;20.10;68.60;;;;;;5094939;28;19912;-67
2021/07/28 00:59:29;;;;;;;;;;;20.20;68.30;;;;;;5094977;28;20374;-67
2021/07/28 01:01:56;;;;;;;;;;;20.30;68.00;;;;;;5094709;28;20011;-66
2021/07/28 01:04:24;;;;;;;;;;;20.40;67.30;;;;;;5095017;28;19995;-67
2021/07/28 01:06:51;;;;;;;;;;;20.30;67.80;;;;;;5094962;28;19908;-69
2021/07/28 01:09:17;;;;;;;;;;;20.50;67.80;;;;;;5094951;28;19908;-68
2021/07/28 01:11:44;;;;;;;;;;;20.70;68.10;;;;;;5094846;28;19915;-68
2021/07/28 01:14:11;;;;;;;;;;;21.10;67.50;;;;;;5094583;28;19908;-68
2021/07/28 01:16:41;;;;;;;;;;;21.50;66.80;;;;;;5094633;28;19958;-68
2021/07/28 01:19:10;;;;;;;;;;;21.80;64.70;;;;;;5094651;28;20351;-68
2021/07/28 01:21:37;;;;;;;;;;;21.70;65.30;;;;;;5094390;28;19908;-68
2021/07/28 01:24:06;;;;;;;;;;;21.80;65.40;;;;;;5094776;28;19920;-68
2021/07/28 01:26:34;;;;;;;;;;;21.80;65.00;;;;;;5094501;28;20038;-67
2021/07/28 01:29:01;;;;;;;;;;;21.90;65.30;;;;;;5094291;28;19915;-65
2021/07/28 01:31:28;;;;;;;;;;;21.70;64.50;;;;;;5094488;28;19953;-67
2021/07/28 01:33:55;;;;;;;;;;;21.50;65.40;;;;;;5092951;28;19909;-68
2021/07/28 01:36:22;;;;;;;;;;;21.30;66.40;;;;;;5094590;28;19922;-67
2021/07/28 01:38:50;;;;;;;;;;;21.20;65.90;;;;;;5094402;28;20323;-66
2021/07/28 01:41:16;;;;;;;;;;;21.20;66.30;;;;;;5094344;28;19908;-67
2021/07/28 01:43:43;;;;;;;;;;;21.20;65.60;;;;;;5078316;28;20046;-67
2021/07/28 01:46:10;;;;;;;;;;;21.20;66.60;;;;;;5074246;28;19954;-68
2021/07/28 01:48:37;;;;;;;;;;;21.30;65.70;;;;;;5073962;28;19995;-67
2021/07/28 01:51:03;;;;;;;;;;;21.30;66.10;;;;;;5073351;28;20309;-67
2021/07/28 01:53:30;;;;;;;;;;;21.20;65.70;;;;;;5073332;28;20341;-64
2021/07/28 01:55:58;;;;;;;;;;;21.10;67.10;;;;;;5073590;28;19909;-64
2021/07/28 01:58:24;;;;;;;;;;;21.20;66.80;;;;;;5073691;28;19909;-65
2021/07/28 02:00:51;;;;;;;;;;;21.30;66.20;;;;;;5074127;28;20317;-66
2021/07/28 02:03:18;;;;;;;;;;;21.30;66.30;;;;;;5073640;28;19924;-65
2021/07/28 02:05:45;;;;;;;;;;;21.20;67.00;;;;;;5073197;28;19954;-64
2021/07/28 02:08:13;;;;;;;;;;;21.10;67.30;;;;;;5073269;28;20003;-64
2021/07/28 02:10:42;;;;;;;;;;;21.30;66.60;;;;;;5073315;28;20343;-64
2021/07/28 02:13:09;;;;;;;;;;;21.30;66.60;;;;;;5073160;28;20256;-65
2021/07/28 02:15:36;;;;;;;;;;;21.30;66.20;;;;;;5073190;28;19908;-66
2021/07/28 02:18:03;;;;;;;;;;;21.20;67.30;;;;;;5073152;28;19916;-64
2021/07/28 02:20:31;;;;;;;;;;;21.20;66.80;;;;;;5073180;28;20354;-65
2021/07/28 02:22:58;;;;;;;;;;;21.20;67.10;;;;;;5073203;28;19916;-66
2021/07/28 02:25:25;;;;;;;;;;;21.30;67.30;;;;;;5073365;28;19915;-66
2021/07/28 02:27:51;;;;;;;;;;;21.40;66.40;;;;;;5072806;28;19917;-64
2021/07/28 02:30:18;;;;;;;;;;;21.50;66.80;;;;;;5073069;28;19909;-65
2021/07/28 02:32:45;;;;;;;;;;;21.60;66.80;;;;;;5073107;28;19962;-67
2021/07/28 02:35:13;;;;;;;;;;;21.60;66.80;;;;;;5072889;28;19920;-66
2021/07/28 02:37:43;;;;;;;;;;;21.50;67.00;;;;;;5072666;28;19924;-65
2021/07/28 02:40:11;;;;;;;;;;;21.50;67.80;;;;;;5072794;28;19909;-65
2021/07/28 02:42:37;;;;;;;;;;;21.40;67.50;;;;;;5072652;28;20026;-64
2021/07/28 02:45:05;;;;;;;;;;;21.50;67.40;;;;;;5072363;28;19964;-66
2021/07/28 02:47:31;;;;;;;;;;;21.60;67.60;;;;;;5072541;28;19989;-65
2021/07/28 02:49:58;;;;;;;;;;;21.60;67.60;;;;;;5072645;28;20359;-66
2021/07/28 02:52:28;;;;;;;;;;;21.50;66.80;;;;;;5072616;28;20027;-68
2021/07/28 02:54:54;;;;;;;;;;;21.30;67.40;;;;;;5072572;28;19908;-65
2021/07/28 02:57:21;;;;;;;;;;;21.20;68.30;;;;;;5072681;28;19909;-64
2021/07/28 02:59:47;;;;;;;;;;;21.10;68.70;;;;;;5071844;28;19912;-65
2021/07/28 03:02:14;;;;;;;;;;;21.40;68.40;;;;;;5072327;28;19942;-66
2021/07/28 03:04:41;;;;;;;;;;;21.60;67.30;;;;;;5072276;28;19909;-65
2021/07/28 03:07:07;;;;;;;;;;;21.80;66.20;;;;;;5072573;28;19909;-66
2021/07/28 03:09:34;;;;;;;;;;;22.00;66.60;;;;;;5072638;28;19916;-64
2021/07/28 03:12:00;;;;;;;;;;;21.80;66.90;;;;;;5072164;28;19915;-65
2021/07/28 03:14:27;;;;;;;;;;;21.70;67.20;;;;;;5071954;28;19991;-65
2021/07/28 03:16:54;;;;;;;;;;;21.70;67.20;;;;;;5072310;28;20363;-64
2021/07/28 03:19:20;;;;;;;;;;;21.70;65.90;;;;;;5072355;28;19908;-66
2021/07/28 03:21:50;;;;;;;;;;;21.70;66.90;;;;;;5071686;28;19908;-64
2021/07/28 03:24:18;;;;;;;;;;;21.50;66.50;;;;;;5072301;28;19912;-65
2021/07/28 03:26:45;;;;;;;;;;;21.60;66.70;;;;;;5072118;28;20000;-65
2021/07/28 03:29:15;;;;;;;;;;;21.50;67.50;;;;;;5072302;28;19913;-65
2021/07/28 03:31:41;;;;;;;;;;;21.50;67.10;;;;;;5072051;28;20212;-64
2021/07/28 03:34:08;;;;;;;;;;;21.60;66.80;;;;;;5072458;28;19915;-66
2021/07/28 03:36:34;;;;;;;;;;;21.50;67.10;;;;;;5072326;28;19995;-65
2021/07/28 03:39:01;;;;;;;;;;;21.50;67.30;;;;;;5072253;28;19916;-66
2021/07/28 03:41:28;;;;;;;;;;;21.30;67.80;;;;;;5072042;28;19952;-65
2021/07/28 03:43:54;;;;;;;;;;;21.40;67.50;;;;;;5071772;28;19920;-65
2021/07/28 03:46:21;;;;;;;;;;;21.40;67.60;;;;;;5072108;28;19908;-65
2021/07/28 03:48:48;;;;;;;;;;;21.50;67.50;;;;;;5072082;28;19923;-65
2021/07/28 03:51:15;;;;;;;;;;;21.30;68.50;;;;;;5072251;28;20351;-66
2021/07/28 03:53:42;;;;;;;;;;;21.30;68.30;;;;;;5071972;28;19912;-65
2021/07/28 03:56:09;;;;;;;;;;;21.10;68.80;;;;;;5071751;28;20008;-66
2021/07/28 03:58:35;;;;;;;;;;;21.20;67.00;;;;;;5074930;28;20007;-65
2021/07/28 04:01:02;;;;;;;;;;;21.20;67.30;;;;;;5075939;28;19949;-66
2021/07/28 04:03:28;;;;;;;;;;;21.20;67.10;;;;;;5075915;28;19917;-67
2021/07/28 04:05:55;;;;;;;;;;;21.20;66.30;;;;;;5075817;28;20367;-68
2021/07/28 04:08:22;;;;;;;;;;;21.10;65.90;;;;;;5075766;28;19913;-66
2021/07/28 04:10:49;;;;;;;;;;;21.20;65.40;;;;;;5075883;28;19915;-68
2021/07/28 04:13:15;;;;;;;;;;;21.40;64.60;;;;;;5075568;28;20416;-67
2021/07/28 04:15:42;;;;;;;;;;;21.40;64.90;;;;;;5075365;28;19963;-66
2021/07/28 04:18:09;;;;;;;;;;;21.50;64.10;;;;;;5075682;28;19913;-66
2021/07/28 04:20:36;;;;;;;;;;;21.50;64.10;;;;;;5075129;28;20374;-67
2021/07/28 04:23:02;;;;;;;;;;;21.70;63.50;;;;;;5075133;28;20081;-68
2021/07/28 04:25:29;;;;;;;;;;;21.80;63.00;;;;;;5075611;28;20452;-68
2021/07/28 04:27:56;;;;;;;;;;;21.80;63.70;;;;;;5075426;28;20275;-66
2021/07/28 04:30:22;;;;;;;;;;;21.80;64.30;;;;;;5075508;28;19952;-65
2021/07/28 04:32:49;;;;;;;;;;;22.00;63.20;;;;;;5075497;28;19991;-67
2021/07/28 04:35:16;;;;;;;;;;;22.10;62.90;;;;;;5075293;28;19915;-65
2021/07/28 04:37:42;;;;;;;;;;;22.00;63.40;;;;;;5107698;28;20367;-67
2021/07/28 04:40:09;;;;;;;;;;;22.00;63.10;;;;;;5075133;28;19969;-66
2021/07/28 04:42:37;;;;;;;;;;;21.90;62.70;;;;;;5074869;28;19920;-65
2021/07/28 04:45:06;;;;;;;;;;;22.10;62.20;;;;;;5074922;28;19924;-66
2021/07/28 04:47:33;;;;;;;;;;;22.10;61.80;;;;;;5074961;28;19915;-69
2021/07/28 04:50:00;;;;;;;;;;;22.10;61.40;;;;;;5075090;28;19908;-67
2021/07/28 04:52:26;;;;;;;;;;;22.00;61.40;;;;;;5075072;28;20355;-66
2021/07/28 04:54:53;;;;;;;;;;;21.90;61.70;;;;;;5074957;28;19908;-67
2021/07/28 04:57:20;;;;;;;;;;;21.80;62.30;;;;;;5074884;28;19915;-68
2021/07/28 04:59:47;;;;;;;;;;;21.80;61.70;;;;;;5074724;28;19909;-68
2021/07/28 05:02:13;;;;;;;;;;;21.90;60.90;;;;;;5074767;28;19924;-68
2021/07/28 05:04:42;;;;;;;;;;;21.80;61.60;;;;;;5074989;28;19953;-66
2021/07/28 05:07:08;;;;;;;;;;;21.80;63.20;;;;;;5107496;28;20256;-67
2021/07/28 05:09:35;;;;;;;;;;;22.10;61.30;;;;;;5074470;28;20414;-68
2021/07/28 05:12:02;;;;;;;;;;;22.10;60.60;;;;;;5074595;28;19913;-66
2021/07/28 05:14:28;;;;;;;;;;;22.20;60.40;;;;;;5074855;28;20002;-68
2021/07/28 05:16:55;;;;;;;;;;;22.20;61.00;;;;;;5074641;28;19962;-66
2021/07/28 05:19:21;;;;;;;;;;;22.10;61.90;;;;;;5074647;28;19943;-66
2021/07/28 05:21:48;;;;;;;;;;;21.90;62.30;;;;;;5074327;28;20355;-68
2021/07/28 05:24:15;;;;;;;;;;;21.80;63.20;;;;;;5074382;28;19912;-66
2021/07/28 05:26:41;;;;;;;;;;;21.70;62.00;;;;;;5074315;28;19912;-65
2021/07/28 05:29:09;;;;;;;;;;;21.60;62.30;;;;;;5074322;28;20386;-66
2021/07/28 05:31:36;;;;;;;;;;;21.40;63.10;;;;;;5074131;28;19995;-64
2021/07/28 05:34:03;;;;;;;;;;;21.30;62.90;;;;;;5074469;28;19916;-65
2021/07/28 05:36:29;;;;;;;;;;;21.20;63.20;;;;;;5074289;28;19908;-64
2021/07/28 05:38:56;;;;;;;;;;;21.10;63.60;;;;;;5074006;28;19908;-66
2021/07/28 05:41:23;;;;;;;;;;;20.90;64.00;;;;;;5074091;28;19909;-66
2021/07/28 05:43:50;;;;;;;;;;;20.90;63.90;;;;;;5073528;28;20325;-64
2021/07/28 05:46:16;;;;;;;;;;;20.90;64.50;;;;;;5074095;28;19909;-65
2021/07/28 05:48:43;;;;;;;;;;;20.80;65.10;;;;;;5074133;28;20379;-66
2021/07/28 05:51:09;;;;;;;;;;;20.70;64.60;;;;;;5072653;28;19940;-66
2021/07/28 05:53:37;;;;;;;;;;;20.60;64.70;;;;;;5073952;28;19916;-65
2021/07/28 05:56:04;;;;;;;;;;;20.50;65.60;;;;;;5074024;28;19966;-66
2021/07/28 05:58:31;;;;;;;;;;;20.40;69.30;;;;;;5073758;28;19959;-65
2021/07/28 06:00:57;;;;;;;;;;;20.30;69.20;;;;;;5073766;28;19909;-64
2021/07/28 06:03:24;;;;;;;;;;;20.10;70.70;;;;;;5073424;28;19962;-65
2021/07/28 06:05:51;;;;;;;;;;;19.90;72.50;;;;;;5073428;28;20256;-67
2021/07/28 06:08:17;;;;;;;;;;;19.70;68.40;;;;;;5073547;28;19961;-67
2021/07/28 06:10:46;;;;;;;;;;;19.70;71.50;;;;;;5073490;28;20347;-65
2021/07/28 06:13:12;;;;;;;;;;;19.60;71.70;;;;;;5073381;28;19916;-66
2021/07/28 06:15:40;;;;;;;;;;;19.50;70.00;;;;;;5073289;28;19909;-67
2021/07/28 06:18:07;;;;;;;;;;;19.50;71.20;;;;;;5073366;28;19909;-64
2021/07/28 06:20:34;;;;;;;;;;;19.50;70.60;;;;;;5072658;28;20425;-66
2021/07/28 06:23:00;;;;;;;;;;;19.40;73.20;;;;;;5073210;28;19978;-66
2021/07/28 06:25:27;;;;;;;;;;;19.40;72.20;;;;;;5073060;28;19952;-67
2021/07/28 06:27:54;;;;;;;;;;;19.40;73.00;;;;;;5073008;28;19944;-65
2021/07/28 06:30:20;;;;;;;;;;;19.40;70.60;;;;;;5073092;28;19962;-64
2021/07/28 06:32:47;;;;;;;;;;;19.40;71.80;;;;;;5072908;28;19915;-64
2021/07/28 06:35:14;;;;;;;;;;;19.40;71.50;;;;;;5073168;28;20278;-64
2021/07/28 06:37:40;;;;;;;;;;;19.40;72.10;;;;;;5072807;28;19908;-64
2021/07/28 06:40:08;;;;;;;;;;;19.30;72.00;;;;;;5072993;28;19953;-67
2021/07/28 06:42:35;;;;;;;;;;;19.30;71.60;;;;;;5072773;28;19921;-68
2021/07/28 06:45:01;;;;;;;;;;;19.30;71.60;;;;;;5072062;28;20498;-66
2021/07/28 06:47:28;;;;;;;;;;;19.40;72.00;;;;;;5071924;28;19947;-67
2021/07/28 06:49:55;;;;;;;;;;;19.40;70.90;;;;;;5072044;28;19909;-65
2021/07/28 06:52:21;;;;;;;;;;;19.40;71.50;;;;;;5069532;28;19912;-63
2021/07/28 06:54:48;;;;;;;;;;;19.30;72.10;;;;;;5069747;28;20368;-64
2021/07/28 06:57:15;;;;;;;;;;;19.30;72.70;;;;;;5069787;28;20312;-63
2021/07/28 06:59:41;;;;;;;;;;;19.30;72.00;;;;;;5069644;28;20426;-65
2021/07/28 07:02:08;;;;;;;;;;;19.20;70.60;;;;;;5069593;28;19912;-65
2021/07/28 07:04:35;;;;;;;;;;;19.20;72.60;;;;;;5069264;28;19912;-64
2021/07/28 07:07:01;;;;;;;;;;;19.20;72.00;;;;;;5069525;28;19958;-67
2021/07/28 07:09:28;;;;;;;;;;;19.20;71.80;;;;;;5069606;28;19932;-67
2021/07/28 07:11:55;;;;;;;;;;;19.10;72.20;;;;;;5069987;28;19967;-64
2021/07/28 07:14:21;;;;;;;;;;;19.10;72.20;;;;;;5069521;28;19932;-66
2021/07/28 07:16:48;;;;;;;;;;;19.00;72.50;;;;;;5069415;28;19915;-64
2021/07/28 07:19:15;;;;;;;;;;;18.90;72.70;;;;;;5069396;28;20011;-67
2021/07/28 07:21:41;;;;;;;;;;;18.90;72.90;;;;;;5069354;28;20121;-64
2021/07/28 07:24:08;;;;;;;;;;;18.90;73.30;;;;;;5069428;28;19951;-64
2021/07/28 07:26:34;;;;;;;;;;;18.80;73.60;;;;;;5069292;28;20390;-66
2021/07/28 07:29:01;;;;;;;;;;;18.80;73.90;;;;;;5069443;28;19909;-66
2021/07/28 07:31:28;;;;;;;;;;;18.80;73.70;;;;;;5067985;28;19915;-64
2021/07/28 07:33:54;;;;;;;;;;;18.80;74.20;;;;;;5068967;28;19916;-64
2021/07/28 07:36:23;;;;;;;;;;;18.70;74.30;;;;;;5069424;28;20378;-69
2021/07/28 07:38:50;;;;;;;;;;;18.70;74.80;;;;;;5069297;28;20255;-66
2021/07/28 07:41:17;;;;;;;;;;;18.60;74.90;;;;;;5069127;28;19912;-65
2021/07/28 07:43:43;;;;;;;;;;;18.70;75.20;;;;;;4943346;28;3517555;-65
2021/07/28 07:46:10;;;;;;;;;;;18.60;76.10;;;;;;5069915;28;20271;-67
2021/07/28 07:48:37;;;;;;;;;;;18.60;75.80;;;;;;5070069;28;19943;-66
2021/07/28 07:51:03;;;;;;;;;;;18.50;75.50;;;;;;5069791;28;19913;-65
2021/07/28 07:53:30;;;;;;;;;;;18.50;76.30;;;;;;5069990;28;20414;-65
2021/07/28 07:55:58;;;;;;;;;;;18.40;76.60;;;;;;5069670;28;19912;-65
2021/07/28 07:58:24;;;;;;;;;;;18.40;76.60;;;;;;5069858;28;19913;-65
2021/07/28 08:00:51;;;;;;;;;;;18.40;77.40;;;;;;5069933;28;20501;-65
2021/07/28 08:03:19;;;;;;;;;;;18.30;77.80;;;;;;5069814;28;20333;-65
2021/07/28 08:05:46;;;;;;;;;;;18.30;77.60;;;;;;5069642;28;19908;-66
2021/07/28 08:08:12;;;;;;;;;;;18.20;78.10;;;;;;5069556;28;19990;-64
2021/07/28 08:10:39;;;;;;;;;;;18.20;78.10;;;;;;5101584;28;20345;-64
2021/07/28 08:13:06;;;;;;;;;;;18.10;78.30;;;;;;5069831;28;19912;-66
2021/07/28 08:15:32;;;;;;;;;;;18.10;79.20;;;;;;5069634;28;19995;-64
2021/07/28 08:18:00;;;;;;;;;;;18.10;79.40;;;;;;5069754;28;20383;-64
2021/07/28 08:20:27;;;;;;;;;;;18.00;79.60;;;;;;5069694;28;19913;-64
2021/07/28 08:22:54;;;;;;;;;;;18.00;80.30;;;;;;5069408;28;19927;-65
2021/07/28 08:25:20;;;;;;;;;;;18.00;80.80;;;;;;5069536;28;19922;-65
2021/07/28 08:27:47;;;;;;;;;;;17.90;81.40;;;;;;5069599;28;19978;-65
2021/07/28 08:30:14;;;;;;;;;;;17.80;81.50;;;;;;5069631;28;19909;-65
2021/07/28 08:32:41;;;;;;;;;;;17.80;81.60;;;;;;5069600;28;19908;-65
2021/07/28 08:35:09;;;;;;;;;;;17.80;82.30;;;;;;5069525;28;20373;-65
2021/07/28 08:37:37;;;;;;;;;;;17.80;82.40;;;;;;5069186;28;19909;-67
2021/07/28 08:40:07;;;;;;;;;;;17.70;82.60;;;;;;5069476;28;19908;-65
2021/07/28 08:42:34;;;;;;;;;;;17.70;81.70;;;;;;5069474;28;19921;-65
2021/07/28 08:45:01;;;;;;;;;;;17.60;82.00;;;;;;5072773;28;19935;-65
2021/07/28 08:47:28;;;;;;;;;;;17.60;81.90;;;;;;5072908;28;19918;-65
2021/07/28 08:49:55;;;;;;;;;;;17.50;82.30;;;;;;5072455;28;19913;-67
2021/07/28 08:52:22;;;;;;;;;;;17.50;82.20;;;;;;5072865;28;20406;-66
2021/07/28 08:54:49;;;;;;;;;;;17.50;82.60;;;;;;5072775;28;19920;-65
2021/07/28 08:57:15;;;;;;;;;;;17.50;82.70;;;;;;5073032;28;19924;-66
2021/07/28 08:59:42;;;;;;;;;;;17.50;83.10;;;;;;5072763;28;19944;-66
2021/07/28 09:02:09;;;;;;;;;;;17.40;83.40;;;;;;5072677;28;19991;-66
2021/07/28 09:04:35;;;;;;;;;;;17.40;83.10;;;;;;5072697;28;19954;-65
2021/07/28 09:07:12;;;;;;;;;;;17.40;83.40;;;;;;5074423;28;20309;-65
2021/07/28 09:09:51;;;;;;;;;;;17.30;83.30;;;;;;5074487;28;19916;-65
2021/07/28 09:12:18;;;;;;;;;;;17.30;84.30;;;;;;5074713;28;19991;-64
2021/07/28 09:14:56;;;;;;;;;;;17.20;84.30;;;;;;5074576;28;20286;-65
2021/07/28 09:17:26;;;;;;;;;;;17.20;85.20;;;;;;5074391;28;20405;-64
2021/07/28 09:19:54;;;;;;;;;;;17.10;85.60;;;;;;5074209;28;19923;-66
2021/07/28 09:22:21;;;;;;;;;;;17.00;86.00;;;;;;5074378;28;19917;-65
2021/07/28 09:25:08;;;;;;;;;;;17.00;86.00;;;;;;5074234;28;20003;-67
2021/07/28 09:27:45;;;;;;;;;;;17.00;86.90;;;;;;5070192;28;19913;-64
2021/07/28 09:30:16;;;;;;;;;;;16.90;86.70;;;;;;5074426;28;20287;-64
2021/07/28 09:33:01;;;;;;;;;;;16.80;86.60;;;;;;5074606;28;19909;-64
2021/07/28 09:35:43;;;;;;;;;;;16.80;87.30;;;;;;5074469;28;20026;-64
2021/07/28 09:38:10;;;;;;;;;;;16.80;87.40;;;;;;5074410;28;20139;-65
2021/07/28 09:40:36;;;;;;;;;;;16.80;88.00;;;;;;5074086;28;20412;-65
2021/07/28 09:43:04;;;;;;;;;;;16.80;88.30;;;;;;5074217;28;19927;-64
2021/07/28 09:45:30;;;;;;;;;;;16.70;88.80;;;;;;5073990;28;19920;-64
2021/07/28 09:47:57;;;;;;;;;;;16.70;89.10;;;;;;5074114;28;20006;-64
2021/07/28 09:50:25;;;;;;;;;;;16.70;89.00;;;;;;5074455;28;19908;-65
2021/07/28 09:53:07;;;;;;;;;;;16.60;89.70;;;;;;5073983;28;19912;-64
2021/07/28 09:55:34;;;;;;;;;;;16.60;89.80;;;;;;5072615;28;19908;-65
2021/07/28 09:58:01;;;;;;;;;;;16.60;90.20;;;;;;5073764;28;19909;-65
2021/07/28 10:00:28;;;;;;;;;;;16.50;90.30;;;;;;5073988;28;19993;-65
2021/07/28 10:03:00;;;;;;;;;;;16.50;90.20;;;;;;5073991;28;19912;-66
2021/07/28 10:05:28;;;;;;;;;;;16.50;90.30;;;;;;5073610;28;20058;-63
2021/07/28 10:08:00;;;;;;;;;;;16.40;90.60;;;;;;5073390;28;19947;-64
2021/07/28 10:10:27;;;;;;;;;;;16.40;90.60;;;;;;5073531;28;19908;-64
2021/07/28 10:12:54;;;;;;;;;;;16.50;90.70;;;;;;5073509;28;20425;-66
2021/07/28 10:15:20;;;;;;;;;;;16.40;90.80;;;;;;5106793;28;20377;-67
2021/07/28 10:17:47;;;;;;;;;;;16.40;91.20;;;;;;5073973;28;19908;-66
2021/07/28 10:20:14;;;;;;;;;;;16.40;91.20;;;;;;5073742;28;19916;-66
2021/07/28 10:22:42;;;;;;;;;;;16.40;91.20;;;;;;5073503;28;20279;-65
2021/07/28 10:25:13;;;;;;;;;;;16.30;91.40;;;;;;5073585;28;19947;-65
2021/07/28 10:27:41;;;;;;;;;;;16.30;91.60;;;;;;5073080;28;19916;-66
2021/07/28 10:30:08;;;;;;;;;;;16.20;91.70;;;;;;5072940;28;19913;-65
2021/07/28 10:32:35;;;;;;;;;;;16.20;91.70;;;;;;5073249;28;19935;-66
2021/07/28 10:35:16;;;;;;;;;;;16.20;91.70;;;;;;5073242;28;19909;-65
2021/07/28 10:37:43;;;;;;;;;;;16.20;92.00;;;;;;5072789;28;20260;-65
2021/07/28 10:40:31;;;;;;;;;;;16.20;92.30;;;;;;5071609;28;19909;-64
2021/07/28 10:43:00;;;;;;;;;;;16.10;92.30;;;;;;5072865;28;20371;-66
2021/07/28 10:45:47;;;;;;;;;;;16.10;92.40;;;;;;5072769;28;20324;-66
2021/07/28 10:48:33;;;;;;;;;;;16.10;92.70;;;;;;5072805;28;19915;-66
2021/07/28 10:51:00;;;;;;;;;;;16.20;92.40;;;;;;5073735;28;19913;-66
2021/07/28 10:53:44;;;;;;;;;;;16.20;92.70;;;;;;5074154;28;19992;-66
2021/07/28 10:56:12;;;;;;;;;;;16.20;92.80;;;;;;5073124;28;19909;-65
2021/07/28 10:58:38;;;;;;;;;;;16.20;92.50;;;;;;5072263;28;19908;-66
2021/07/28 11:01:05;;;;;;;;;;;16.20;92.70;;;;;;5072658;28;20011;-66
2021/07/28 11:03:33;;;;;;;;;;;16.20;92.80;;;;;;5072300;28;20011;-65
2021/07/28 11:06:16;;;;;;;;;;;16.20;93.30;;;;;;5072397;28;19908;-65
2021/07/28 11:08:43;;;;;;;;;;;16.20;93.10;;;;;;5072406;28;19909;-66
2021/07/28 11:11:10;;;;;;;;;;;16.20;93.50;;;;;;5072415;28;20248;-65
2021/07/28 11:13:44;;;;;;;;;;;16.20;93.30;;;;;;5071708;28;20353;-66
2021/07/28 11:16:11;;;;;;;;;;;16.20;93.20;;;;;;5072390;28;19915;-66
2021/07/28 11:18:37;;;;;;;;;;;16.20;93.40;;;;;;5072426;28;20381;-65
2021/07/28 11:21:07;;;;;;;;;;;16.10;93.20;;;;;;5072595;28;20340;-64
2021/07/28 11:23:33;;;;;;;;;;;16.10;93.60;;;;;;5072295;28;19916;-66
2021/07/28 11:26:13;;;;;;;;;;;16.10;93.30;;;;;;5072500;28;20477;-66
2021/07/28 11:28:40;;;;;;;;;;;16.00;93.50;;;;;;5071771;28;19915;-64
2021/07/28 11:31:08;;;;;;;;;;;16.00;93.80;;;;;;5072097;28;19934;-66
2021/07/28 11:33:35;;;;;;;;;;;16.00;94.00;;;;;;5072025;28;19909;-66
2021/07/28 11:36:01;;;;;;;;;;;16.00;94.10;;;;;;5072309;28;20290;-66
2021/07/28 11:38:32;;;;;;;;;;;16.00;94.00;;;;;;5072218;28;19908;-65
2021/07/28 11:41:00;;;;;;;;;;;16.00;93.90;;;;;;5072141;28;20023;-64
2021/07/28 11:43:34;;;;;;;;;;;15.90;94.10;;;;;;5071410;28;19928;-65
2021/07/28 11:46:05;;;;;;;;;;;15.90;94.40;;;;;;5072230;28;19924;-67
2021/07/28 11:48:41;;;;;;;;;;;15.90;94.40;;;;;;5072010;28;19948;-66
2021/07/28 11:51:09;;;;;;;;;;;15.90;94.30;;;;;;5072092;28;19909;-66
2021/07/28 11:53:36;;;;;;;;;;;15.90;94.30;;;;;;5071624;28;19995;-65
2021/07/28 11:56:21;;;;;;;;;;;15.80;94.20;;;;;;5071850;28;19908;-65
2021/07/28 11:58:48;;;;;;;;;;;15.80;94.20;;;;;;5071636;28;19908;-66
2021/07/28 12:01:25;;;;;;;;;;;15.80;94.40;;;;;;5071973;28;20259;-66
2021/07/28 12:03:56;;;;;;;;;;;15.70;94.60;;;;;;5071450;28;19924;-66
2021/07/28 12:06:30;;;;;;;;;;;15.70;94.50;;;;;;5071966;28;19908;-65
2021/07/28 12:09:07;;;;;;;;;;;15.70;94.70;;;;;;5071715;28;20274;-65
2021/07/28 12:11:47;;;;;;;;;;;15.80;94.50;;;;;;5071722;28;20348;-64
2021/07/28 12:14:24;;;;;;;;;;;15.70;94.60;;;;;;5071236;28;19923;-67
2021/07/28 12:16:55;;;;;;;;;;;15.70;94.80;;;;;;5071697;28;19916;-65
2021/07/28 12:19:23;;;;;;;;;;;15.70;94.70;;;;;;5074535;28;19912;-65
2021/07/28 12:21:57;;;;;;;;;;;15.70;94.80;;;;;;5075337;28;20015;-65
2021/07/28 12:24:43;;;;;;;;;;;15.70;94.80;;;;;;5075831;28;20422;-67
2021/07/28 12:27:30;;;;;;;;;;;15.60;95.20;;;;;;5075517;28;19908;-65
2021/07/28 12:29:57;;;;;;;;;;;15.60;95.10;;;;;;5064123;28;20383;-65
2021/07/28 12:32:40;;;;;;;;;;;15.60;95.30;;;;;;5075460;28;19909;-65
2021/07/28 12:35:15;;;;;;;;;;;15.60;95.60;;;;;;5075227;28;20008;-66
2021/07/28 12:37:42;;;;;;;;;;;15.60;95.60;;;;;;5075310;28;19908;-66
2021/07/28 12:40:09;;;;;;;;;;;15.60;95.50;;;;;;5075067;28;20359;-66
2021/07/28 12:42:37;;;;;;;;;;;15.50;95.80;;;;;;5075001;28;20325;-66
2021/07/28 12:45:12;;;;;;;;;;;15.50;95.80;;;;;;5075053;28;19925;-65
2021/07/28 12:47:39;;;;;;;;;;;15.40;95.90;;;;;;5074990;28;19934;-65
2021/07/28 12:50:06;;;;;;;;;;;15.40;96.20;;;;;;5075186;28;19915;-65
2021/07/28 12:52:32;;;;;;;;;;;15.30;96.20;;;;;;5074927;28;20422;-65
2021/07/28 12:54:59;;;;;;;;;;;15.30;96.30;;;;;;5074979;28;19908;-66
2021/07/28 12:57:26;;;;;;;;;;;15.30;96.50;;;;;;5074985;28;19916;-67
2021/07/28 12:59:52;;;;;;;;;;;15.40;96.50;;;;;;5074609;28;20255;-68
2021/07/28 13:02:19;;;;;;;;;;;15.40;96.50;;;;;;5074889;28;19999;-65
2021/07/28 13:04:45;;;;;;;;;;;15.40;96.40;;;;;;5074947;28;19913;-64
2021/07/28 13:07:18;;;;;;;;;;;15.40;96.40;;;;;;5074725;28;20003;-65
2021/07/28 13:09:45;;;;;;;;;;;15.30;96.50;;;;;;5074490;28;19908;-64
2021/07/28 13:12:12;;;;;;;;;;;15.30;96.30;;;;;;5074701;28;20016;-64
2021/07/28 13:20:45;;;;;;;;;;;15.30;96.30;;;;;;5074681;28;20271;-64
2021/07/28 13:23:13;;;;;;;;;;;15.30;96.50;;;;;;5074221;28;19955;-65
2021/07/28 13:25:40;;;;;;;;;;;15.30;96.40;;;;;;5074151;28;19908;-65
2021/07/28 13:28:06;;;;;;;;;;;15.30;96.40;;;;;;5074527;28;20022;-64
2021/07/28 13:30:33;;;;;;;;;;;15.30;96.40;;;;;;5074504;28;19915;-63
2021/07/28 13:33:01;;;;;;;;;;;15.30;96.40;;;;;;5074306;28;19909;-64
2021/07/28 13:35:27;;;;;;;;;;;15.20;96.40;;;;;;5074594;28;19962;-65
2021/07/28 13:37:54;;;;;;;;;;;15.20;96.40;;;;;;5074042;28;19908;-64
2021/07/28 13:40:22;;;;;;;;;;;15.20;96.60;;;;;;5074319;28;19908;-67
2021/07/28 13:42:49;;;;;;;;;;;15.20;96.50;;;;;;5073968;28;19924;-64
2021/07/28 13:45:16;;;;;;;;;;;15.20;96.30;;;;;;5073777;28;20300;-66
2021/07/28 13:47:43;;;;;;;;;;;15.10;96.50;;;;;;5073683;28;19909;-65
2021/07/28 13:50:11;;;;;;;;;;;15.10;96.50;;;;;;5073938;28;19916;-65
2021/07/28 13:52:38;;;;;;;;;;;15.00;96.60;;;;;;5073951;28;19943;-66
2021/07/28 13:55:04;;;;;;;;;;;15.00;96.70;;;;;;5074011;28;19908;-66
2021/07/28 13:57:31;;;;;;;;;;;15.00;96.90;;;;;;5074064;28;19912;-66
2021/07/28 13:59:58;;;;;;;;;;;15.00;97.00;;;;;;5074093;28;19909;-67
2021/07/28 14:02:26;;;;;;;;;;;15.00;96.80;;;;;;5073687;28;20318;-67
2021/07/28 14:04:56;;;;;;;;;;;15.00;96.90;;;;;;5073730;28;19956;-64
2021/07/28 14:07:26;;;;;;;;;;;15.00;97.00;;;;;;5073518;28;19913;-66
2021/07/28 14:09:52;;;;;;;;;;;15.00;96.80;;;;;;5073307;28;20355;-65
2021/07/28 14:12:19;;;;;;;;;;;15.00;96.80;;;;;;5073426;28;19909;-67
2021/07/28 14:14:46;;;;;;;;;;;15.00;96.70;;;;;;5073398;28;19997;-66
2021/07/28 14:17:13;;;;;;;;;;;15.00;97.10;;;;;;5073256;28;20039;-66
2021/07/28 14:19:40;;;;;;;;;;;15.00;97.00;;;;;;5073127;28;19912;-67
2021/07/28 14:22:07;;;;;;;;;;;15.00;96.80;;;;;;5073248;28;19908;-66
2021/07/28 14:24:34;;;;;;;;;;;15.00;96.90;;;;;;5073253;28;19924;-65
2021/07/28 14:27:01;;;;;;;;;;;15.00;96.80;;;;;;5073083;28;19998;-65
2021/07/28 14:29:28;;;;;;;;;;;15.00;96.90;;;;;;5073078;28;19908;-65